sensor_id;sensor_type;location;lat;lon;timestamp;P1;durP1;ratioP1;P2;durP2;ratioP2
57249;SDS011;43102;52.014;-0.680;2023-06-14T00:00:00;8.10;;;5.00;;
57249;SDS011;43102;52.014;-0.680;2023-06-14T00:01:02;8.10;;;5.00;;
57249;SDS011;43102;52.014;-0.680;2023-06-14T00:02:00;8.10;;;5.00;;
57249;SDS011;43102;52.014;-0.680;2023-06-14T00:03:01;8.10;;;5.00;;
57249;SDS011;43102;52.014;-0.680;2023-06-14T00:04:01;8.10;;;5.00;;
57249;SDS011;43102;52.014;-0.680;2023-06-14T00:05:00;8.10;;;5.00;;
57249;SDS011;43102;52.014;-0.680;2023-06-14T00:06:00;8.10;;;5.00;;
57249;SDS011;43102;52.014;-0.680;2023-06-14T00:07:00;8.10;;;5.00;;
57249;SDS011;43102;52.014;-0.680;2023-06-14T00:08:00;8.10;;;5.00;;
57249;SDS011;43102;52.014;-0.680;2023-06-14T00:09:01;8.10;;;5.00;;
57249;SDS011;43102;52.014;-0.680;2023-06-14T00:10:00;8.10;;;5.00;;
57249;SDS011;43102;52.014;-0.680;2023-06-14T00:11:00;8.10;;;5.00;;
57249;SDS011;43102;52.014;-0.680;2023-06-14T00:12:01;8.10;;;5.00;;
57249;SDS011;43102;52.014;-0.680;2023-06-14T00:13:01;8.10;;;5.00;;
57249;SDS011;43102;52.014;-0.680;2023-06-14T00:14:00;8.10;;;5.00;;
57249;SDS011;43102;52.014;-0.680;2023-06-14T00:15:02;8.10;;;5.00;;
57249;SDS011;43102;52.014;-0.680;2023-06-14T00:16:00;8.10;;;5.00;;
57249;SDS011;43102;52.014;-0.680;2023-06-14T00:17:01;8.50;;;4.80;;
57249;SDS011;43102;52.014;-0.680;2023-06-14T00:18:01;8.50;;;4.80;;
57249;SDS011;43102;52.014;-0.680;2023-06-14T00:19:03;8.50;;;4.80;;
57249;SDS011;43102;52.014;-0.680;2023-06-14T00:20:01;8.50;;;4.80;;
57249;SDS011;43102;52.014;-0.680;2023-06-14T00:21:02;8.50;;;4.80;;
57249;SDS011;43102;52.014;-0.680;2023-06-14T00:22:00;8.50;;;4.80;;
57249;SDS011;43102;52.014;-0.680;2023-06-14T00:23:01;8.50;;;4.80;;
57249;SDS011;43102;52.014;-0.680;2023-06-14T00:24:01;8.50;;;4.80;;
57249;SDS011;43102;52.014;-0.680;2023-06-14T00:25:10;8.50;;;4.80;;
57249;SDS011;43102;52.014;-0.680;2023-06-14T00:26:00;8.50;;;4.80;;
57249;SDS011;43102;52.014;-0.680;2023-06-14T00:27:00;8.50;;;4.80;;
57249;SDS011;43102;52.014;-0.680;2023-06-14T00:28:00;8.50;;;4.80;;
57249;SDS011;43102;52.014;-0.680;2023-06-14T00:29:00;8.50;;;4.80;;
57249;SDS011;43102;52.014;-0.680;2023-06-14T00:30:00;8.50;;;4.80;;
57249;SDS011;43102;52.014;-0.680;2023-06-14T00:31:00;8.50;;;4.80;;
57249;SDS011;43102;52.014;-0.680;2023-06-14T00:32:00;8.50;;;4.80;;
57249;SDS011;43102;52.014;-0.680;2023-06-14T00:33:01;8.50;;;4.80;;
57249;SDS011;43102;52.014;-0.680;2023-06-14T00:34:00;8.50;;;4.80;;
57249;SDS011;43102;52.014;-0.680;2023-06-14T00:35:00;8.50;;;4.80;;
57249;SDS011;43102;52.014;-0.680;2023-06-14T00:36:00;8.50;;;4.80;;
57249;SDS011;43102;52.014;-0.680;2023-06-14T00:37:01;8.50;;;4.80;;
57249;SDS011;43102;52.014;-0.680;2023-06-14T00:38:01;8.50;;;4.80;;
57249;SDS011;43102;52.014;-0.680;2023-06-14T00:39:00;8.50;;;4.80;;
57249;SDS011;43102;52.014;-0.680;2023-06-14T00:40:00;8.50;;;4.80;;
57249;SDS011;43102;52.014;-0.680;2023-06-14T00:41:00;8.50;;;4.80;;
57249;SDS011;43102;52.014;-0.680;2023-06-14T00:42:00;8.50;;;4.80;;
57249;SDS011;43102;52.014;-0.680;2023-06-14T00:43:00;8.50;;;4.80;;
57249;SDS011;43102;52.014;-0.680;2023-06-14T00:44:00;8.50;;;4.80;;
57249;SDS011;43102;52.014;-0.680;2023-06-14T00:45:00;8.50;;;4.80;;
57249;SDS011;43102;52.014;-0.680;2023-06-14T00:46:00;8.50;;;4.80;;
57249;SDS011;43102;52.014;-0.680;2023-06-14T00:47:01;7.40;;;4.50;;
57249;SDS011;43102;52.014;-0.680;2023-06-14T00:48:01;7.40;;;4.50;;
57249;SDS011;43102;52.014;-0.680;2023-06-14T00:49:01;7.40;;;4.50;;
57249;SDS011;43102;52.014;-0.680;2023-06-14T00:50:01;7.40;;;4.50;;
57249;SDS011;43102;52.014;-0.680;2023-06-14T00:51:03;7.40;;;4.50;;
57249;SDS011;43102;52.014;-0.680;2023-06-14T00:52:02;7.40;;;4.50;;
57249;SDS011;43102;52.014;-0.680;2023-06-14T00:53:01;7.40;;;4.50;;
57249;SDS011;43102;52.014;-0.680;2023-06-14T00:54:00;7.40;;;4.50;;
57249;SDS011;43102;52.014;-0.680;2023-06-14T00:55:01;7.40;;;4.50;;
57249;SDS011;43102;52.014;-0.680;2023-06-14T00:56:01;7.40;;;4.50;;
57249;SDS011;43102;52.014;-0.680;2023-06-14T00:57:00;7.40;;;4.50;;
57249;SDS011;43102;52.014;-0.680;2023-06-14T00:58:00;7.40;;;4.50;;
57249;SDS011;43102;52.014;-0.680;2023-06-14T00:59:00;7.40;;;4.50;;
57249;SDS011;43102;52.014;-0.680;2023-06-14T01:00:00;7.40;;;4.50;;
57249;SDS011;43102;52.014;-0.680;2023-06-14T01:01:02;7.40;;;4.50;;
57249;SDS011;43102;52.014;-0.680;2023-06-14T01:02:00;7.40;;;4.50;;
57249;SDS011;43102;52.014;-0.680;2023-06-14T01:03:01;7.40;;;4.50;;
57249;SDS011;43102;52.014;-0.680;2023-06-14T01:04:03;7.40;;;4.50;;
57249;SDS011;43102;52.014;-0.680;2023-06-14T01:05:01;7.40;;;4.50;;
57249;SDS011;43102;52.014;-0.680;2023-06-14T01:06:14;7.40;;;4.50;;
57249;SDS011;43102;52.014;-0.680;2023-06-14T01:09:04;7.40;;;4.50;;
57249;SDS011;43102;52.014;-0.680;2023-06-14T01:11:05;7.40;;;4.50;;
57249;SDS011;43102;52.014;-0.680;2023-06-14T01:12:15;7.40;;;4.50;;
57249;SDS011;43102;52.014;-0.680;2023-06-14T01:13:11;7.40;;;4.50;;
57249;SDS011;43102;52.014;-0.680;2023-06-14T01:14:02;7.40;;;4.50;;
57249;SDS011;43102;52.014;-0.680;2023-06-14T01:15:02;7.40;;;4.50;;
57249;SDS011;43102;52.014;-0.680;2023-06-14T01:16:01;7.40;;;4.50;;
57249;SDS011;43102;52.014;-0.680;2023-06-14T01:17:01;6.90;;;4.20;;
57249;SDS011;43102;52.014;-0.680;2023-06-14T01:18:03;6.90;;;4.20;;
57249;SDS011;43102;52.014;-0.680;2023-06-14T01:19:02;6.90;;;4.20;;
57249;SDS011;43102;52.014;-0.680;2023-06-14T01:20:02;6.90;;;4.20;;
57249;SDS011;43102;52.014;-0.680;2023-06-14T01:21:05;6.90;;;4.20;;
57249;SDS011;43102;52.014;-0.680;2023-06-14T01:22:01;6.90;;;4.20;;
57249;SDS011;43102;52.014;-0.680;2023-06-14T01:23:00;6.90;;;4.20;;
57249;SDS011;43102;52.014;-0.680;2023-06-14T01:24:03;6.90;;;4.20;;
57249;SDS011;43102;52.014;-0.680;2023-06-14T01:25:00;6.90;;;4.20;;
57249;SDS011;43102;52.014;-0.680;2023-06-14T01:26:03;6.90;;;4.20;;
57249;SDS011;43102;52.014;-0.680;2023-06-14T01:27:02;6.90;;;4.20;;
57249;SDS011;43102;52.014;-0.680;2023-06-14T01:28:03;6.90;;;4.20;;
57249;SDS011;43102;52.014;-0.680;2023-06-14T01:29:00;6.90;;;4.20;;
57249;SDS011;43102;52.014;-0.680;2023-06-14T01:30:03;6.90;;;4.20;;
57249;SDS011;43102;52.014;-0.680;2023-06-14T01:31:04;6.90;;;4.20;;
57249;SDS011;43102;52.014;-0.680;2023-06-14T01:32:01;6.90;;;4.20;;
57249;SDS011;43102;52.014;-0.680;2023-06-14T01:33:01;6.90;;;4.20;;
57249;SDS011;43102;52.014;-0.680;2023-06-14T01:34:00;6.90;;;4.20;;
57249;SDS011;43102;52.014;-0.680;2023-06-14T01:35:00;6.90;;;4.20;;
57249;SDS011;43102;52.014;-0.680;2023-06-14T01:36:01;6.90;;;4.20;;
57249;SDS011;43102;52.014;-0.680;2023-06-14T01:37:01;6.90;;;4.20;;
57249;SDS011;43102;52.014;-0.680;2023-06-14T01:38:02;6.90;;;4.20;;
57249;SDS011;43102;52.014;-0.680;2023-06-14T01:39:01;6.90;;;4.20;;
57249;SDS011;43102;52.014;-0.680;2023-06-14T01:40:01;6.90;;;4.20;;
57249;SDS011;43102;52.014;-0.680;2023-06-14T01:41:01;6.90;;;4.20;;
57249;SDS011;43102;52.014;-0.680;2023-06-14T01:42:01;6.90;;;4.20;;
57249;SDS011;43102;52.014;-0.680;2023-06-14T01:43:02;6.90;;;4.20;;
57249;SDS011;43102;52.014;-0.680;2023-06-14T01:44:01;6.90;;;4.20;;
57249;SDS011;43102;52.014;-0.680;2023-06-14T01:45:02;6.90;;;4.20;;
57249;SDS011;43102;52.014;-0.680;2023-06-14T01:46:01;6.90;;;4.20;;
57249;SDS011;43102;52.014;-0.680;2023-06-14T01:47:00;6.50;;;4.60;;
57249;SDS011;43102;52.014;-0.680;2023-06-14T01:48:01;6.50;;;4.60;;
57249;SDS011;43102;52.014;-0.680;2023-06-14T01:49:00;6.50;;;4.60;;
57249;SDS011;43102;52.014;-0.680;2023-06-14T01:50:01;6.50;;;4.60;;
57249;SDS011;43102;52.014;-0.680;2023-06-14T01:51:00;6.50;;;4.60;;
57249;SDS011;43102;52.014;-0.680;2023-06-14T01:52:00;6.50;;;4.60;;
57249;SDS011;43102;52.014;-0.680;2023-06-14T01:53:01;6.50;;;4.60;;
57249;SDS011;43102;52.014;-0.680;2023-06-14T01:54:00;6.50;;;4.60;;
57249;SDS011;43102;52.014;-0.680;2023-06-14T01:55:03;6.50;;;4.60;;
57249;SDS011;43102;52.014;-0.680;2023-06-14T01:56:01;6.50;;;4.60;;
57249;SDS011;43102;52.014;-0.680;2023-06-14T01:57:00;6.50;;;4.60;;
57249;SDS011;43102;52.014;-0.680;2023-06-14T01:58:00;6.50;;;4.60;;
57249;SDS011;43102;52.014;-0.680;2023-06-14T01:59:00;6.50;;;4.60;;
57249;SDS011;43102;52.014;-0.680;2023-06-14T02:00:00;6.50;;;4.60;;
57249;SDS011;43102;52.014;-0.680;2023-06-14T02:01:00;6.50;;;4.60;;
57249;SDS011;43102;52.014;-0.680;2023-06-14T02:02:02;6.50;;;4.60;;
57249;SDS011;43102;52.014;-0.680;2023-06-14T02:03:00;6.50;;;4.60;;
57249;SDS011;43102;52.014;-0.680;2023-06-14T02:04:00;6.50;;;4.60;;
57249;SDS011;43102;52.014;-0.680;2023-06-14T02:05:01;6.50;;;4.60;;
57249;SDS011;43102;52.014;-0.680;2023-06-14T02:06:01;6.50;;;4.60;;
57249;SDS011;43102;52.014;-0.680;2023-06-14T02:07:00;6.50;;;4.60;;
57249;SDS011;43102;52.014;-0.680;2023-06-14T02:08:00;6.50;;;4.60;;
57249;SDS011;43102;52.014;-0.680;2023-06-14T02:09:02;6.50;;;4.60;;
57249;SDS011;43102;52.014;-0.680;2023-06-14T02:10:00;6.50;;;4.60;;
57249;SDS011;43102;52.014;-0.680;2023-06-14T02:11:00;6.50;;;4.60;;
57249;SDS011;43102;52.014;-0.680;2023-06-14T02:12:00;6.50;;;4.60;;
57249;SDS011;43102;52.014;-0.680;2023-06-14T02:13:00;6.50;;;4.60;;
57249;SDS011;43102;52.014;-0.680;2023-06-14T02:14:01;6.50;;;4.60;;
57249;SDS011;43102;52.014;-0.680;2023-06-14T02:15:00;6.50;;;4.60;;
57249;SDS011;43102;52.014;-0.680;2023-06-14T02:16:01;6.50;;;4.60;;
57249;SDS011;43102;52.014;-0.680;2023-06-14T02:17:01;5.90;;;4.20;;
57249;SDS011;43102;52.014;-0.680;2023-06-14T02:18:02;5.90;;;4.20;;
57249;SDS011;43102;52.014;-0.680;2023-06-14T02:19:00;5.90;;;4.20;;
57249;SDS011;43102;52.014;-0.680;2023-06-14T02:20:00;5.90;;;4.20;;
57249;SDS011;43102;52.014;-0.680;2023-06-14T02:21:00;5.90;;;4.20;;
57249;SDS011;43102;52.014;-0.680;2023-06-14T02:22:00;5.90;;;4.20;;
57249;SDS011;43102;52.014;-0.680;2023-06-14T02:23:01;5.90;;;4.20;;
57249;SDS011;43102;52.014;-0.680;2023-06-14T02:24:01;5.90;;;4.20;;
57249;SDS011;43102;52.014;-0.680;2023-06-14T02:25:03;5.90;;;4.20;;
57249;SDS011;43102;52.014;-0.680;2023-06-14T02:26:00;5.90;;;4.20;;
57249;SDS011;43102;52.014;-0.680;2023-06-14T02:27:00;5.90;;;4.20;;
57249;SDS011;43102;52.014;-0.680;2023-06-14T02:28:00;5.90;;;4.20;;
57249;SDS011;43102;52.014;-0.680;2023-06-14T02:29:01;5.90;;;4.20;;
57249;SDS011;43102;52.014;-0.680;2023-06-14T02:30:00;5.90;;;4.20;;
57249;SDS011;43102;52.014;-0.680;2023-06-14T02:31:00;5.90;;;4.20;;
57249;SDS011;43102;52.014;-0.680;2023-06-14T02:32:00;5.90;;;4.20;;
57249;SDS011;43102;52.014;-0.680;2023-06-14T02:33:00;5.90;;;4.20;;
57249;SDS011;43102;52.014;-0.680;2023-06-14T02:34:00;5.90;;;4.20;;
57249;SDS011;43102;52.014;-0.680;2023-06-14T02:35:00;5.90;;;4.20;;
57249;SDS011;43102;52.014;-0.680;2023-06-14T02:36:02;5.90;;;4.20;;
57249;SDS011;43102;52.014;-0.680;2023-06-14T02:37:02;5.90;;;4.20;;
57249;SDS011;43102;52.014;-0.680;2023-06-14T02:38:00;5.90;;;4.20;;
57249;SDS011;43102;52.014;-0.680;2023-06-14T02:39:00;5.90;;;4.20;;
57249;SDS011;43102;52.014;-0.680;2023-06-14T02:40:00;5.90;;;4.20;;
57249;SDS011;43102;52.014;-0.680;2023-06-14T02:41:01;5.90;;;4.20;;
57249;SDS011;43102;52.014;-0.680;2023-06-14T02:42:00;5.90;;;4.20;;
57249;SDS011;43102;52.014;-0.680;2023-06-14T02:43:01;5.90;;;4.20;;
57249;SDS011;43102;52.014;-0.680;2023-06-14T02:44:00;5.90;;;4.20;;
57249;SDS011;43102;52.014;-0.680;2023-06-14T02:45:02;5.90;;;4.20;;
57249;SDS011;43102;52.014;-0.680;2023-06-14T02:46:00;5.90;;;4.20;;
57249;SDS011;43102;52.014;-0.680;2023-06-14T02:47:00;7.90;;;4.50;;
57249;SDS011;43102;52.014;-0.680;2023-06-14T02:48:00;7.90;;;4.50;;
57249;SDS011;43102;52.014;-0.680;2023-06-14T02:49:00;7.90;;;4.50;;
57249;SDS011;43102;52.014;-0.680;2023-06-14T02:50:00;7.90;;;4.50;;
57249;SDS011;43102;52.014;-0.680;2023-06-14T02:51:00;7.90;;;4.50;;
57249;SDS011;43102;52.014;-0.680;2023-06-14T02:52:00;7.90;;;4.50;;
57249;SDS011;43102;52.014;-0.680;2023-06-14T02:53:00;7.90;;;4.50;;
57249;SDS011;43102;52.014;-0.680;2023-06-14T02:54:00;7.90;;;4.50;;
57249;SDS011;43102;52.014;-0.680;2023-06-14T02:55:00;7.90;;;4.50;;
57249;SDS011;43102;52.014;-0.680;2023-06-14T02:56:00;7.90;;;4.50;;
57249;SDS011;43102;52.014;-0.680;2023-06-14T02:57:00;7.90;;;4.50;;
57249;SDS011;43102;52.014;-0.680;2023-06-14T02:58:00;7.90;;;4.50;;
57249;SDS011;43102;52.014;-0.680;2023-06-14T02:59:00;7.90;;;4.50;;
57249;SDS011;43102;52.014;-0.680;2023-06-14T03:00:00;7.90;;;4.50;;
57249;SDS011;43102;52.014;-0.680;2023-06-14T03:01:03;7.90;;;4.50;;
57249;SDS011;43102;52.014;-0.680;2023-06-14T03:02:00;7.90;;;4.50;;
57249;SDS011;43102;52.014;-0.680;2023-06-14T03:03:01;7.90;;;4.50;;
57249;SDS011;43102;52.014;-0.680;2023-06-14T03:04:01;7.90;;;4.50;;
57249;SDS011;43102;52.014;-0.680;2023-06-14T03:05:01;7.90;;;4.50;;
57249;SDS011;43102;52.014;-0.680;2023-06-14T03:06:05;7.90;;;4.50;;
57249;SDS011;43102;52.014;-0.680;2023-06-14T03:07:02;7.90;;;4.50;;
57249;SDS011;43102;52.014;-0.680;2023-06-14T03:08:00;7.90;;;4.50;;
57249;SDS011;43102;52.014;-0.680;2023-06-14T03:09:04;7.90;;;4.50;;
57249;SDS011;43102;52.014;-0.680;2023-06-14T03:10:00;7.90;;;4.50;;
57249;SDS011;43102;52.014;-0.680;2023-06-14T03:11:02;7.90;;;4.50;;
57249;SDS011;43102;52.014;-0.680;2023-06-14T03:12:00;7.90;;;4.50;;
57249;SDS011;43102;52.014;-0.680;2023-06-14T03:13:01;7.90;;;4.50;;
57249;SDS011;43102;52.014;-0.680;2023-06-14T03:14:00;7.90;;;4.50;;
57249;SDS011;43102;52.014;-0.680;2023-06-14T03:15:04;7.90;;;4.50;;
57249;SDS011;43102;52.014;-0.680;2023-06-14T03:16:03;7.90;;;4.50;;
57249;SDS011;43102;52.014;-0.680;2023-06-14T03:17:00;8.30;;;4.70;;
57249;SDS011;43102;52.014;-0.680;2023-06-14T03:18:00;8.30;;;4.70;;
57249;SDS011;43102;52.014;-0.680;2023-06-14T03:19:00;8.30;;;4.70;;
57249;SDS011;43102;52.014;-0.680;2023-06-14T03:20:01;8.30;;;4.70;;
57249;SDS011;43102;52.014;-0.680;2023-06-14T03:21:01;8.30;;;4.70;;
57249;SDS011;43102;52.014;-0.680;2023-06-14T03:22:00;8.30;;;4.70;;
57249;SDS011;43102;52.014;-0.680;2023-06-14T03:23:01;8.30;;;4.70;;
57249;SDS011;43102;52.014;-0.680;2023-06-14T03:24:00;8.30;;;4.70;;
57249;SDS011;43102;52.014;-0.680;2023-06-14T03:25:00;8.30;;;4.70;;
57249;SDS011;43102;52.014;-0.680;2023-06-14T03:26:00;8.30;;;4.70;;
57249;SDS011;43102;52.014;-0.680;2023-06-14T03:27:00;8.30;;;4.70;;
57249;SDS011;43102;52.014;-0.680;2023-06-14T03:28:02;8.30;;;4.70;;
57249;SDS011;43102;52.014;-0.680;2023-06-14T03:29:00;8.30;;;4.70;;
57249;SDS011;43102;52.014;-0.680;2023-06-14T03:30:00;8.30;;;4.70;;
57249;SDS011;43102;52.014;-0.680;2023-06-14T03:31:01;8.30;;;4.70;;
57249;SDS011;43102;52.014;-0.680;2023-06-14T03:32:02;8.30;;;4.70;;
57249;SDS011;43102;52.014;-0.680;2023-06-14T03:33:01;8.30;;;4.70;;
57249;SDS011;43102;52.014;-0.680;2023-06-14T03:34:01;8.30;;;4.70;;
57249;SDS011;43102;52.014;-0.680;2023-06-14T03:35:00;8.30;;;4.70;;
57249;SDS011;43102;52.014;-0.680;2023-06-14T03:36:02;8.30;;;4.70;;
57249;SDS011;43102;52.014;-0.680;2023-06-14T03:37:00;8.30;;;4.70;;
57249;SDS011;43102;52.014;-0.680;2023-06-14T03:38:00;8.30;;;4.70;;
57249;SDS011;43102;52.014;-0.680;2023-06-14T03:39:00;8.30;;;4.70;;
57249;SDS011;43102;52.014;-0.680;2023-06-14T03:40:00;8.30;;;4.70;;
57249;SDS011;43102;52.014;-0.680;2023-06-14T03:41:00;8.30;;;4.70;;
57249;SDS011;43102;52.014;-0.680;2023-06-14T03:42:00;8.30;;;4.70;;
57249;SDS011;43102;52.014;-0.680;2023-06-14T03:43:00;8.30;;;4.70;;
57249;SDS011;43102;52.014;-0.680;2023-06-14T03:44:00;8.30;;;4.70;;
57249;SDS011;43102;52.014;-0.680;2023-06-14T03:45:00;8.30;;;4.70;;
57249;SDS011;43102;52.014;-0.680;2023-06-14T03:46:00;8.30;;;4.70;;
57249;SDS011;43102;52.014;-0.680;2023-06-14T03:47:00;9.10;;;4.80;;
57249;SDS011;43102;52.014;-0.680;2023-06-14T03:48:01;9.10;;;4.80;;
57249;SDS011;43102;52.014;-0.680;2023-06-14T03:49:01;9.10;;;4.80;;
57249;SDS011;43102;52.014;-0.680;2023-06-14T03:50:01;9.10;;;4.80;;
57249;SDS011;43102;52.014;-0.680;2023-06-14T03:51:02;9.10;;;4.80;;
57249;SDS011;43102;52.014;-0.680;2023-06-14T03:52:02;9.10;;;4.80;;
57249;SDS011;43102;52.014;-0.680;2023-06-14T03:53:01;9.10;;;4.80;;
57249;SDS011;43102;52.014;-0.680;2023-06-14T03:54:10;9.10;;;4.80;;
57249;SDS011;43102;52.014;-0.680;2023-06-14T03:55:03;9.10;;;4.80;;
57249;SDS011;43102;52.014;-0.680;2023-06-14T03:56:00;9.10;;;4.80;;
57249;SDS011;43102;52.014;-0.680;2023-06-14T03:57:01;9.10;;;4.80;;
57249;SDS011;43102;52.014;-0.680;2023-06-14T03:58:01;9.10;;;4.80;;
57249;SDS011;43102;52.014;-0.680;2023-06-14T03:59:00;9.10;;;4.80;;
57249;SDS011;43102;52.014;-0.680;2023-06-14T04:00:00;9.10;;;4.80;;
57249;SDS011;43102;52.014;-0.680;2023-06-14T04:01:00;9.10;;;4.80;;
57249;SDS011;43102;52.014;-0.680;2023-06-14T04:02:00;9.10;;;4.80;;
57249;SDS011;43102;52.014;-0.680;2023-06-14T04:03:01;9.10;;;4.80;;
57249;SDS011;43102;52.014;-0.680;2023-06-14T04:04:01;9.10;;;4.80;;
57249;SDS011;43102;52.014;-0.680;2023-06-14T04:05:02;9.10;;;4.80;;
57249;SDS011;43102;52.014;-0.680;2023-06-14T04:06:01;9.10;;;4.80;;
57249;SDS011;43102;52.014;-0.680;2023-06-14T04:07:00;9.10;;;4.80;;
57249;SDS011;43102;52.014;-0.680;2023-06-14T04:08:00;9.10;;;4.80;;
57249;SDS011;43102;52.014;-0.680;2023-06-14T04:09:02;9.10;;;4.80;;
57249;SDS011;43102;52.014;-0.680;2023-06-14T04:10:00;9.10;;;4.80;;
57249;SDS011;43102;52.014;-0.680;2023-06-14T04:11:01;9.10;;;4.80;;
57249;SDS011;43102;52.014;-0.680;2023-06-14T04:12:00;9.10;;;4.80;;
57249;SDS011;43102;52.014;-0.680;2023-06-14T04:13:00;9.10;;;4.80;;
57249;SDS011;43102;52.014;-0.680;2023-06-14T04:14:02;9.10;;;4.80;;
57249;SDS011;43102;52.014;-0.680;2023-06-14T04:15:10;9.10;;;4.80;;
57249;SDS011;43102;52.014;-0.680;2023-06-14T04:16:00;9.10;;;4.80;;
57249;SDS011;43102;52.014;-0.680;2023-06-14T04:17:00;7.20;;;4.90;;
57249;SDS011;43102;52.014;-0.680;2023-06-14T04:18:01;7.20;;;4.90;;
57249;SDS011;43102;52.014;-0.680;2023-06-14T04:19:00;7.20;;;4.90;;
57249;SDS011;43102;52.014;-0.680;2023-06-14T04:20:01;7.20;;;4.90;;
57249;SDS011;43102;52.014;-0.680;2023-06-14T04:21:00;7.20;;;4.90;;
57249;SDS011;43102;52.014;-0.680;2023-06-14T04:22:02;7.20;;;4.90;;
57249;SDS011;43102;52.014;-0.680;2023-06-14T04:23:12;7.20;;;4.90;;
57249;SDS011;43102;52.014;-0.680;2023-06-14T04:24:02;7.20;;;4.90;;
57249;SDS011;43102;52.014;-0.680;2023-06-14T04:25:06;7.20;;;4.90;;
57249;SDS011;43102;52.014;-0.680;2023-06-14T04:26:02;7.20;;;4.90;;
57249;SDS011;43102;52.014;-0.680;2023-06-14T04:27:02;7.20;;;4.90;;
57249;SDS011;43102;52.014;-0.680;2023-06-14T04:28:01;7.20;;;4.90;;
57249;SDS011;43102;52.014;-0.680;2023-06-14T04:29:01;7.20;;;4.90;;
57249;SDS011;43102;52.014;-0.680;2023-06-14T04:30:02;7.20;;;4.90;;
57249;SDS011;43102;52.014;-0.680;2023-06-14T04:31:01;7.20;;;4.90;;
57249;SDS011;43102;52.014;-0.680;2023-06-14T04:32:01;7.20;;;4.90;;
57249;SDS011;43102;52.014;-0.680;2023-06-14T04:33:00;7.20;;;4.90;;
57249;SDS011;43102;52.014;-0.680;2023-06-14T04:34:00;7.20;;;4.90;;
57249;SDS011;43102;52.014;-0.680;2023-06-14T04:35:02;7.20;;;4.90;;
57249;SDS011;43102;52.014;-0.680;2023-06-14T04:36:00;7.20;;;4.90;;
57249;SDS011;43102;52.014;-0.680;2023-06-14T04:37:01;7.20;;;4.90;;
57249;SDS011;43102;52.014;-0.680;2023-06-14T04:38:02;7.20;;;4.90;;
57249;SDS011;43102;52.014;-0.680;2023-06-14T04:39:03;7.20;;;4.90;;
57249;SDS011;43102;52.014;-0.680;2023-06-14T04:40:00;7.20;;;4.90;;
57249;SDS011;43102;52.014;-0.680;2023-06-14T04:41:02;7.20;;;4.90;;
57249;SDS011;43102;52.014;-0.680;2023-06-14T04:42:03;7.20;;;4.90;;
57249;SDS011;43102;52.014;-0.680;2023-06-14T04:43:00;7.20;;;4.90;;
57249;SDS011;43102;52.014;-0.680;2023-06-14T04:44:02;7.20;;;4.90;;
57249;SDS011;43102;52.014;-0.680;2023-06-14T04:45:00;7.20;;;4.90;;
57249;SDS011;43102;52.014;-0.680;2023-06-14T04:46:01;7.20;;;4.90;;
57249;SDS011;43102;52.014;-0.680;2023-06-14T04:47:00;8.40;;;5.30;;
57249;SDS011;43102;52.014;-0.680;2023-06-14T04:48:01;8.40;;;5.30;;
57249;SDS011;43102;52.014;-0.680;2023-06-14T04:49:02;8.40;;;5.30;;
57249;SDS011;43102;52.014;-0.680;2023-06-14T04:50:03;8.40;;;5.30;;
57249;SDS011;43102;52.014;-0.680;2023-06-14T04:51:00;8.40;;;5.30;;
57249;SDS011;43102;52.014;-0.680;2023-06-14T04:52:01;8.40;;;5.30;;
57249;SDS011;43102;52.014;-0.680;2023-06-14T04:53:00;8.40;;;5.30;;
57249;SDS011;43102;52.014;-0.680;2023-06-14T04:54:01;8.40;;;5.30;;
57249;SDS011;43102;52.014;-0.680;2023-06-14T04:55:01;8.40;;;5.30;;
57249;SDS011;43102;52.014;-0.680;2023-06-14T04:56:00;8.40;;;5.30;;
57249;SDS011;43102;52.014;-0.680;2023-06-14T04:57:00;8.40;;;5.30;;
57249;SDS011;43102;52.014;-0.680;2023-06-14T04:58:00;8.40;;;5.30;;
57249;SDS011;43102;52.014;-0.680;2023-06-14T04:59:00;8.40;;;5.30;;
57249;SDS011;43102;52.014;-0.680;2023-06-14T05:00:01;8.40;;;5.30;;
57249;SDS011;43102;52.014;-0.680;2023-06-14T05:01:02;8.40;;;5.30;;
57249;SDS011;43102;52.014;-0.680;2023-06-14T05:02:00;8.40;;;5.30;;
57249;SDS011;43102;52.014;-0.680;2023-06-14T05:03:00;8.40;;;5.30;;
57249;SDS011;43102;52.014;-0.680;2023-06-14T05:04:01;8.40;;;5.30;;
57249;SDS011;43102;52.014;-0.680;2023-06-14T05:05:02;8.40;;;5.30;;
57249;SDS011;43102;52.014;-0.680;2023-06-14T05:06:00;8.40;;;5.30;;
57249;SDS011;43102;52.014;-0.680;2023-06-14T05:07:02;8.40;;;5.30;;
57249;SDS011;43102;52.014;-0.680;2023-06-14T05:08:00;8.40;;;5.30;;
57249;SDS011;43102;52.014;-0.680;2023-06-14T05:09:00;8.40;;;5.30;;
57249;SDS011;43102;52.014;-0.680;2023-06-14T05:10:00;8.40;;;5.30;;
57249;SDS011;43102;52.014;-0.680;2023-06-14T05:11:00;8.40;;;5.30;;
57249;SDS011;43102;52.014;-0.680;2023-06-14T05:12:00;8.40;;;5.30;;
57249;SDS011;43102;52.014;-0.680;2023-06-14T05:13:01;8.40;;;5.30;;
57249;SDS011;43102;52.014;-0.680;2023-06-14T05:14:01;8.40;;;5.30;;
57249;SDS011;43102;52.014;-0.680;2023-06-14T05:15:00;8.40;;;5.30;;
57249;SDS011;43102;52.014;-0.680;2023-06-14T05:16:00;8.40;;;5.30;;
57249;SDS011;43102;52.014;-0.680;2023-06-14T05:17:00;8.50;;;5.80;;
57249;SDS011;43102;52.014;-0.680;2023-06-14T05:18:01;8.50;;;5.80;;
57249;SDS011;43102;52.014;-0.680;2023-06-14T05:19:01;8.50;;;5.80;;
57249;SDS011;43102;52.014;-0.680;2023-06-14T05:20:00;8.50;;;5.80;;
57249;SDS011;43102;52.014;-0.680;2023-06-14T05:21:01;8.50;;;5.80;;
57249;SDS011;43102;52.014;-0.680;2023-06-14T05:22:02;8.50;;;5.80;;
57249;SDS011;43102;52.014;-0.680;2023-06-14T05:23:00;8.50;;;5.80;;
57249;SDS011;43102;52.014;-0.680;2023-06-14T05:24:01;8.50;;;5.80;;
57249;SDS011;43102;52.014;-0.680;2023-06-14T05:25:00;8.50;;;5.80;;
57249;SDS011;43102;52.014;-0.680;2023-06-14T05:26:02;8.50;;;5.80;;
57249;SDS011;43102;52.014;-0.680;2023-06-14T05:27:00;8.50;;;5.80;;
57249;SDS011;43102;52.014;-0.680;2023-06-14T05:28:00;8.50;;;5.80;;
57249;SDS011;43102;52.014;-0.680;2023-06-14T05:29:03;8.50;;;5.80;;
57249;SDS011;43102;52.014;-0.680;2023-06-14T05:30:00;8.50;;;5.80;;
57249;SDS011;43102;52.014;-0.680;2023-06-14T05:31:00;8.50;;;5.80;;
57249;SDS011;43102;52.014;-0.680;2023-06-14T05:32:00;8.50;;;5.80;;
57249;SDS011;43102;52.014;-0.680;2023-06-14T05:33:00;8.50;;;5.80;;
57249;SDS011;43102;52.014;-0.680;2023-06-14T05:34:00;8.50;;;5.80;;
57249;SDS011;43102;52.014;-0.680;2023-06-14T05:35:00;8.50;;;5.80;;
57249;SDS011;43102;52.014;-0.680;2023-06-14T05:36:00;8.50;;;5.80;;
57249;SDS011;43102;52.014;-0.680;2023-06-14T05:37:00;8.50;;;5.80;;
57249;SDS011;43102;52.014;-0.680;2023-06-14T05:38:01;8.50;;;5.80;;
57249;SDS011;43102;52.014;-0.680;2023-06-14T05:39:02;8.50;;;5.80;;
57249;SDS011;43102;52.014;-0.680;2023-06-14T05:40:00;8.50;;;5.80;;
57249;SDS011;43102;52.014;-0.680;2023-06-14T05:41:00;8.50;;;5.80;;
57249;SDS011;43102;52.014;-0.680;2023-06-14T05:42:00;8.50;;;5.80;;
57249;SDS011;43102;52.014;-0.680;2023-06-14T05:43:00;8.50;;;5.80;;
57249;SDS011;43102;52.014;-0.680;2023-06-14T05:44:01;8.50;;;5.80;;
57249;SDS011;43102;52.014;-0.680;2023-06-14T05:45:00;8.50;;;5.80;;
57249;SDS011;43102;52.014;-0.680;2023-06-14T05:46:00;8.50;;;5.80;;
57249;SDS011;43102;52.014;-0.680;2023-06-14T05:47:00;10.80;;;5.10;;
57249;SDS011;43102;52.014;-0.680;2023-06-14T05:48:00;10.80;;;5.10;;
57249;SDS011;43102;52.014;-0.680;2023-06-14T05:49:00;10.80;;;5.10;;
57249;SDS011;43102;52.014;-0.680;2023-06-14T05:50:00;10.80;;;5.10;;
57249;SDS011;43102;52.014;-0.680;2023-06-14T05:51:00;10.80;;;5.10;;
57249;SDS011;43102;52.014;-0.680;2023-06-14T05:52:00;10.80;;;5.10;;
57249;SDS011;43102;52.014;-0.680;2023-06-14T05:53:00;10.80;;;5.10;;
57249;SDS011;43102;52.014;-0.680;2023-06-14T05:54:00;10.80;;;5.10;;
57249;SDS011;43102;52.014;-0.680;2023-06-14T05:55:01;10.80;;;5.10;;
57249;SDS011;43102;52.014;-0.680;2023-06-14T05:56:01;10.80;;;5.10;;
57249;SDS011;43102;52.014;-0.680;2023-06-14T05:57:01;10.80;;;5.10;;
57249;SDS011;43102;52.014;-0.680;2023-06-14T05:58:00;10.80;;;5.10;;